createdAt,value
2018-03-06T00:01:52.908Z,45.67
2018-03-06T00:04:21.319Z,45.87
2018-03-06T00:06:49.665Z,44.07
2018-03-06T00:09:18.067Z,44.60
2018-03-06T00:11:48.341Z,47.10
2018-03-06T00:14:18.873Z,46.87
2018-03-06T00:16:48.242Z,45.90
2018-03-06T00:19:16.579Z,45.30
2018-03-06T00:21:44.915Z,43.27
2018-03-06T00:24:13.271Z,44.70
2018-03-06T00:26:41.606Z,42.53
2018-03-06T00:29:11.732Z,46.30
2018-03-06T00:31:40.076Z,43.60
2018-03-06T00:34:08.445Z,41.40
2018-03-06T00:36:37.586Z,44.43
2018-03-06T00:39:06.038Z,43.63
2018-03-06T00:41:34.592Z,43.70
2018-03-06T00:44:02.929Z,42.80
2018-03-06T00:46:31.248Z,45.77
2018-03-06T00:48:59.628Z,46.47
2018-03-06T00:51:28.094Z,45.40
2018-03-06T00:53:59.071Z,45.30
2018-03-06T00:56:28.288Z,44.07
2018-03-06T00:58:57.483Z,46.70
2018-03-06T01:01:28.509Z,48.47
2018-03-06T01:03:56.912Z,47.27
2018-03-06T01:06:25.291Z,47.13
2018-03-06T01:08:53.609Z,47.53
2018-03-06T01:11:22.791Z,48.23
2018-03-06T01:13:51.140Z,46.63
2018-03-06T01:16:19.595Z,44.00
2018-03-06T01:18:47.944Z,44.70
2018-03-06T01:21:16.393Z,44.10
2018-03-06T01:23:45.803Z,46.67
2018-03-06T01:26:16.867Z,45.90
2018-03-06T01:28:45.298Z,44.20
2018-03-06T01:31:13.629Z,45.07
2018-03-06T01:33:42.025Z,43.07
2018-03-06T01:36:14.830Z,44.20
2018-03-06T01:38:43.178Z,46.00
2018-03-06T01:41:11.510Z,43.63
2018-03-06T01:43:39.842Z,44.07
2018-03-06T01:46:08.183Z,45.37
2018-03-06T01:48:36.537Z,44.67
2018-03-06T01:51:04.881Z,43.47
2018-03-06T01:53:33.331Z,43.93
2018-03-06T01:56:01.677Z,44.00
2018-03-06T01:58:30.054Z,43.63
2018-03-06T02:00:58.459Z,46.57
2018-03-06T02:03:26.804Z,45.10
2018-03-06T02:05:55.187Z,39.77
2018-03-06T02:08:23.501Z,44.07
2018-03-06T02:10:51.911Z,44.57
2018-03-06T02:13:20.454Z,43.07
2018-03-06T02:15:48.934Z,43.70
2018-03-06T02:18:17.374Z,43.13
2018-03-06T02:20:45.829Z,44.87
2018-03-06T02:23:14.197Z,42.53
2018-03-06T02:25:42.555Z,41.40
2018-03-06T02:28:11.722Z,42.20
2018-03-06T02:30:41.673Z,41.90
2018-03-06T02:33:10.058Z,43.23
2018-03-06T02:35:38.508Z,42.03
2018-03-06T02:38:08.709Z,42.57
2018-03-06T02:40:37.092Z,41.40
2018-03-06T02:43:07.348Z,41.87
2018-03-06T02:45:35.727Z,42.30
2018-03-06T02:48:04.866Z,43.37
2018-03-06T02:50:33.229Z,41.43
2018-03-06T02:53:04.439Z,40.80
2018-03-06T02:55:32.896Z,40.63
2018-03-06T02:58:02.016Z,41.63
2018-03-06T03:00:32.118Z,42.23
2018-03-06T03:03:02.648Z,40.50
2018-03-06T03:05:31.154Z,40.20
2018-03-06T03:07:59.546Z,39.77
2018-03-06T03:10:29.472Z,41.80
2018-03-06T03:12:57.803Z,41.20
2018-03-06T03:15:26.184Z,42.50
2018-03-06T03:17:55.616Z,39.80
2018-03-06T03:20:25.798Z,42.00
2018-03-06T03:22:54.183Z,39.10
2018-03-06T03:25:22.600Z,39.93
2018-03-06T03:27:50.972Z,41.80
2018-03-06T03:30:19.403Z,40.00
2018-03-06T03:32:49.442Z,39.47
2018-03-06T03:35:17.874Z,40.70
2018-03-06T03:37:46.239Z,40.60
2018-03-06T03:40:16.260Z,40.60
2018-03-06T03:42:44.713Z,41.97
2018-03-06T03:45:14.999Z,39.90
2018-03-06T03:47:43.376Z,41.30
2018-03-06T03:50:11.754Z,40.03
2018-03-06T03:52:42.697Z,41.70
2018-03-06T03:55:12.710Z,41.57
2018-03-06T03:57:41.038Z,42.43
2018-03-06T04:00:11.159Z,40.40
2018-03-06T04:02:39.529Z,39.93
2018-03-06T04:05:07.874Z,42.07
2018-03-06T04:07:37.954Z,43.70
2018-03-06T04:10:06.460Z,41.70
2018-03-06T04:12:34.905Z,41.13
2018-03-06T04:15:03.384Z,40.33
2018-03-06T04:17:33.540Z,41.47
2018-03-06T04:20:04.080Z,40.57
2018-03-06T04:22:34.580Z,42.70
2018-03-06T04:25:04.519Z,42.93
2018-03-06T04:27:32.898Z,41.43
2018-03-06T04:30:01.393Z,43.70
2018-03-06T04:32:29.735Z,41.10
2018-03-06T04:34:58.162Z,40.73
2018-03-06T04:37:28.302Z,41.80
2018-03-06T04:39:58.386Z,40.67
2018-03-06T04:42:26.733Z,40.50
2018-03-06T04:44:55.098Z,40.73
2018-03-06T04:47:23.520Z,42.13
2018-03-06T04:49:51.898Z,40.03
2018-03-06T04:52:21.977Z,39.33
2018-03-06T04:54:50.442Z,40.17
2018-03-06T04:57:20.560Z,39.87
2018-03-06T04:59:48.941Z,40.20
2018-03-06T05:02:19.113Z,38.63
2018-03-06T05:04:47.635Z,39.37
2018-03-06T05:07:16.069Z,38.50
2018-03-06T05:09:44.462Z,39.60
2018-03-06T05:12:12.807Z,37.80
2018-03-06T05:14:41.139Z,37.03
2018-03-06T05:17:09.567Z,36.53
2018-03-06T05:19:37.998Z,36.73
2018-03-06T05:22:08.072Z,36.57
2018-03-06T05:24:36.440Z,34.47
2018-03-06T05:27:04.835Z,37.20
2018-03-06T05:29:33.182Z,35.60
2018-03-06T05:32:04.268Z,34.80
2018-03-06T05:34:32.723Z,34.83
2018-03-06T05:37:01.062Z,34.90
2018-03-06T05:39:32.054Z,36.27
2018-03-06T05:42:00.582Z,34.87
2018-03-06T05:44:28.968Z,35.13
2018-03-06T05:46:59.410Z,39.67
2018-03-06T05:49:30.398Z,35.77
2018-03-06T05:52:00.651Z,36.27
2018-03-06T05:54:31.692Z,37.33
2018-03-06T05:57:00.085Z,36.20
2018-03-06T05:59:29.167Z,29.63
2018-03-06T06:01:57.573Z,33.43
2018-03-06T06:04:27.562Z,34.00
2018-03-06T06:06:58.619Z,33.67
2018-03-06T06:09:27.966Z,32.47
2018-03-06T06:11:56.409Z,34.03
2018-03-06T06:14:24.777Z,34.63
2018-03-06T06:16:53.197Z,33.07
2018-03-06T06:19:23.331Z,33.10
2018-03-06T06:21:53.579Z,31.50
2018-03-06T06:24:22.167Z,33.43
2018-03-06T06:26:51.484Z,32.90
2018-03-06T06:29:21.759Z,34.37
2018-03-06T06:31:50.136Z,34.73
2018-03-06T06:34:19.435Z,34.70
2018-03-06T06:36:47.923Z,32.57
2018-03-06T06:39:16.352Z,34.63
2018-03-06T06:41:44.942Z,34.43
2018-03-06T06:44:13.349Z,32.63
2018-03-06T06:46:43.339Z,33.30
2018-03-06T06:49:11.865Z,35.13
2018-03-06T06:51:41.844Z,33.27
2018-03-06T06:54:10.610Z,32.97
2018-03-06T06:56:38.935Z,35.53
2018-03-06T06:59:08.115Z,34.40
2018-03-06T07:01:36.557Z,34.10
2018-03-06T07:04:04.992Z,33.97
2018-03-06T07:06:33.433Z,34.07
2018-03-06T07:09:03.580Z,35.07
2018-03-06T07:11:32.069Z,34.47
2018-03-06T07:14:00.699Z,35.47
2018-03-06T07:16:29.081Z,32.47
2018-03-06T07:18:57.415Z,34.43
2018-03-06T07:21:26.593Z,33.23
2018-03-06T07:23:54.927Z,34.50
2018-03-06T07:26:24.995Z,35.13
2018-03-06T07:28:55.083Z,34.17
2018-03-06T07:31:25.330Z,34.10
2018-03-06T07:33:53.866Z,35.50
2018-03-06T07:36:22.351Z,34.73
2018-03-06T07:38:51.584Z,34.47
2018-03-06T07:41:20.758Z,34.40
2018-03-06T07:43:49.117Z,34.50
2018-03-06T07:46:17.792Z,33.63
2018-03-06T07:48:46.170Z,33.97
2018-03-06T07:51:14.554Z,34.23
2018-03-06T07:53:43.595Z,34.20
2018-03-06T07:56:12.182Z,35.00
2018-03-06T07:58:40.579Z,35.20
2018-03-06T08:01:09.028Z,35.60
2018-03-06T08:03:37.444Z,34.30
2018-03-06T08:06:08.428Z,36.13
2018-03-06T08:08:36.821Z,35.50
2018-03-06T08:11:05.396Z,34.70
2018-03-06T08:13:34.518Z,33.30
2018-03-06T08:16:03.031Z,35.40
2018-03-06T08:18:31.382Z,35.50
2018-03-06T08:20:59.760Z,33.07
2018-03-06T08:23:28.175Z,34.47
2018-03-06T08:25:56.482Z,35.60
2018-03-06T08:28:24.824Z,36.83
2018-03-06T08:30:56.053Z,35.07
2018-03-06T08:33:24.620Z,35.73
2018-03-06T08:35:53.054Z,34.90
2018-03-06T08:38:22.227Z,35.07
2018-03-06T08:40:51.326Z,33.70
2018-03-06T08:43:19.622Z,34.73
2018-03-06T08:45:47.981Z,34.20
2018-03-06T08:48:16.388Z,34.60
2018-03-06T08:50:44.768Z,36.43
2018-03-06T08:53:15.680Z,35.90
2018-03-06T08:55:44.880Z,35.93
2018-03-06T08:58:13.985Z,34.43
2018-03-06T09:00:42.414Z,35.50
2018-03-06T09:03:10.812Z,37.13
2018-03-06T09:05:40.257Z,36.20
2018-03-06T09:08:08.599Z,37.27
2018-03-06T09:10:36.918Z,37.50
2018-03-06T09:13:07.004Z,35.77
2018-03-06T09:15:35.381Z,36.60
2018-03-06T09:18:03.828Z,35.10
2018-03-06T09:20:32.222Z,38.37
2018-03-06T09:23:00.599Z,38.03
2018-03-06T09:25:29.050Z,39.27
2018-03-06T09:27:58.256Z,38.50
2018-03-06T09:30:26.712Z,37.83
2018-03-06T09:32:55.065Z,40.23
2018-03-06T09:35:23.420Z,38.87
2018-03-06T09:37:51.774Z,39.43
2018-03-06T09:40:20.157Z,39.80
2018-03-06T09:42:50.381Z,38.07
2018-03-06T09:45:20.501Z,38.67
2018-03-06T09:47:48.851Z,40.90
2018-03-06T09:50:17.288Z,42.10
2018-03-06T09:52:45.756Z,38.07
2018-03-06T09:55:17.009Z,36.93
2018-03-06T09:57:46.210Z,38.63
2018-03-06T10:00:16.269Z,38.63
2018-03-06T10:02:44.676Z,37.93
2018-03-06T10:05:13.611Z,39.43
2018-03-06T10:07:42.073Z,37.40
2018-03-06T10:10:10.432Z,37.87
2018-03-06T10:12:40.551Z,38.57
2018-03-06T10:15:09.019Z,38.83
2018-03-06T10:17:37.338Z,41.27
2018-03-06T10:20:05.678Z,39.50
2018-03-06T10:22:34.010Z,39.00
2018-03-06T10:25:02.345Z,38.30
2018-03-06T10:27:30.701Z,41.87
2018-03-06T10:29:59.002Z,42.23
2018-03-06T10:32:27.360Z,42.20
2018-03-06T10:34:58.489Z,39.87
2018-03-06T10:37:26.874Z,43.30
2018-03-06T10:39:55.354Z,42.03
2018-03-06T10:42:24.452Z,41.50
2018-03-06T10:44:55.306Z,42.53
2018-03-06T10:47:24.478Z,41.47
2018-03-06T10:49:52.866Z,41.07
2018-03-06T10:52:21.236Z,42.00
2018-03-06T10:54:51.457Z,42.10
2018-03-06T10:57:21.600Z,41.37
2018-03-06T10:59:50.074Z,41.57
2018-03-06T11:02:18.447Z,39.63
2018-03-06T11:04:46.799Z,41.77
2018-03-06T11:07:15.842Z,41.50
2018-03-06T11:09:44.248Z,42.07
2018-03-06T11:12:12.589Z,43.30
2018-03-06T11:14:40.950Z,43.30
2018-03-06T11:17:09.325Z,41.10
2018-03-06T11:19:37.650Z,41.40
2018-03-06T11:22:06.019Z,41.90
2018-03-06T11:24:34.406Z,40.50
2018-03-06T11:27:02.778Z,44.00
2018-03-06T11:29:31.170Z,43.70
2018-03-06T11:31:59.496Z,41.90
2018-03-06T11:34:29.644Z,40.80
2018-03-06T11:36:59.088Z,42.33
2018-03-06T11:39:27.643Z,40.60
2018-03-06T11:41:56.240Z,42.63
2018-03-06T11:44:24.605Z,41.33
2018-03-06T11:46:53.814Z,43.07
2018-03-06T11:49:22.134Z,42.50
2018-03-06T11:51:50.577Z,44.67
2018-03-06T11:54:20.802Z,42.17
2018-03-06T11:56:53.212Z,41.00
2018-03-06T11:59:21.794Z,45.07
2018-03-06T12:01:50.234Z,42.80
2018-03-06T12:04:18.593Z,42.40
2018-03-06T12:06:46.886Z,41.80
2018-03-06T12:09:15.520Z,41.93
2018-03-06T12:11:43.948Z,42.87
2018-03-06T12:14:12.277Z,44.10
2018-03-06T12:16:40.683Z,43.50
2018-03-06T12:19:09.046Z,42.87
2018-03-06T12:21:39.145Z,43.70
2018-03-06T12:24:07.524Z,43.50
2018-03-06T12:26:36.552Z,44.47
2018-03-06T12:29:05.034Z,44.13
2018-03-06T12:31:35.239Z,43.93
2018-03-06T12:34:03.564Z,45.23
2018-03-06T12:36:34.397Z,44.17
2018-03-06T12:39:02.806Z,45.70
2018-03-06T12:41:31.193Z,43.13
2018-03-06T12:43:59.595Z,45.23
2018-03-06T12:46:27.962Z,42.47
2018-03-06T12:48:58.308Z,42.63
2018-03-06T12:51:30.789Z,45.67
2018-03-06T12:53:59.900Z,43.27
2018-03-06T12:56:28.251Z,43.83
2018-03-06T12:58:56.723Z,46.27
2018-03-06T13:01:25.117Z,43.83
2018-03-06T13:03:53.491Z,46.23
2018-03-06T13:06:22.014Z,42.73
2018-03-06T13:08:50.993Z,45.50
2018-03-06T13:11:19.313Z,43.53
2018-03-06T13:13:47.725Z,42.97
2018-03-06T13:16:16.163Z,43.90
2018-03-06T13:18:46.724Z,39.27
2018-03-06T13:21:15.395Z,42.37
2018-03-06T13:23:43.825Z,43.50
2018-03-06T13:26:14.240Z,42.17
2018-03-06T13:28:46.407Z,45.70
2018-03-06T13:31:14.769Z,44.07
2018-03-06T13:33:43.141Z,45.80
2018-03-06T13:36:11.655Z,43.20
2018-03-06T13:38:40.713Z,43.77
2018-03-06T13:41:11.016Z,44.03
2018-03-06T13:43:39.410Z,45.67
2018-03-06T13:46:07.765Z,42.97
2018-03-06T13:48:37.885Z,42.53
2018-03-06T13:51:06.286Z,44.80
2018-03-06T13:53:34.659Z,43.23
2018-03-06T13:56:03.123Z,42.97
2018-03-06T13:58:32.464Z,44.60
2018-03-06T14:01:00.955Z,43.57
2018-03-06T14:03:29.323Z,42.73
2018-03-06T14:05:57.820Z,43.37
2018-03-06T14:08:26.145Z,42.53
2018-03-06T14:10:55.156Z,44.00
2018-03-06T14:13:23.635Z,47.17
2018-03-06T14:15:53.664Z,43.80
2018-03-06T14:18:22.098Z,43.67
2018-03-06T14:20:50.465Z,43.40
2018-03-06T14:23:18.805Z,44.50
2018-03-06T14:25:47.146Z,41.83
2018-03-06T14:28:15.606Z,42.00
2018-03-06T14:30:43.961Z,44.33
2018-03-06T14:33:12.667Z,42.40
2018-03-06T14:35:41.225Z,43.40
2018-03-06T14:38:10.524Z,43.80
2018-03-06T14:40:41.767Z,42.37
2018-03-06T14:45:44.712Z,42.10
2018-03-06T14:48:13.040Z,40.27
2018-03-06T14:50:43.118Z,41.47
2018-03-06T14:53:13.675Z,43.20
2018-03-06T14:55:42.937Z,43.27
2018-03-06T14:58:13.383Z,44.70
2018-03-06T15:00:44.315Z,41.40
2018-03-06T15:03:12.711Z,43.30
2018-03-06T15:05:41.813Z,42.20
2018-03-06T15:08:10.187Z,42.97
2018-03-06T15:10:38.533Z,46.30
2018-03-06T15:13:07.771Z,45.50
2018-03-06T15:15:36.217Z,46.90
2018-03-06T15:18:07.120Z,43.30
2018-03-06T15:20:35.647Z,44.83
2018-03-06T15:23:03.979Z,43.30
2018-03-06T15:25:32.392Z,44.17
2018-03-06T15:28:00.955Z,42.07
2018-03-06T15:30:29.287Z,43.27
2018-03-06T15:33:00.575Z,44.50
2018-03-06T15:35:28.973Z,43.57
2018-03-06T15:37:57.346Z,43.60
2018-03-06T15:40:25.671Z,43.53
2018-03-06T15:42:54.088Z,42.57
2018-03-06T15:45:22.520Z,41.93
2018-03-06T15:47:50.858Z,44.10
2018-03-06T15:50:19.290Z,44.23
2018-03-06T15:52:47.661Z,42.77
2018-03-06T15:55:17.793Z,44.50
2018-03-06T15:57:47.771Z,42.27
2018-03-06T16:00:18.796Z,44.57
2018-03-06T16:02:47.215Z,44.00
2018-03-06T16:05:15.589Z,44.53
2018-03-06T16:07:43.943Z,44.43
2018-03-06T16:10:12.347Z,44.17
2018-03-06T16:12:40.860Z,43.50
2018-03-06T16:15:09.225Z,44.63
2018-03-06T16:17:38.513Z,44.90
2018-03-06T16:20:06.916Z,46.17
2018-03-06T16:22:35.363Z,44.03
2018-03-06T16:25:03.994Z,45.37
2018-03-06T16:27:35.033Z,45.73
2018-03-06T16:30:03.496Z,43.77
2018-03-06T16:32:32.062Z,44.93
2018-03-06T16:35:00.434Z,43.87
2018-03-06T16:37:29.876Z,45.53
2018-03-06T16:39:58.208Z,45.03
2018-03-06T16:42:28.439Z,45.60
2018-03-06T16:44:56.816Z,42.17
2018-03-06T16:47:25.198Z,45.57
2018-03-06T16:49:53.581Z,44.70
2018-03-06T16:52:22.098Z,45.27
2018-03-06T16:54:52.480Z,44.87
2018-03-06T16:57:20.943Z,43.23
2018-03-06T16:59:49.342Z,45.00
2018-03-06T17:02:20.345Z,43.07
2018-03-06T17:04:48.801Z,42.93
2018-03-06T17:07:17.260Z,45.70
2018-03-06T17:09:45.658Z,45.20
2018-03-06T17:12:14.108Z,47.63
2018-03-06T17:14:44.189Z,45.37
2018-03-06T17:17:12.668Z,44.40
2018-03-06T17:19:42.880Z,46.10
2018-03-06T17:22:11.235Z,43.93
2018-03-06T17:24:39.578Z,44.73
2018-03-06T17:27:08.877Z,45.07
2018-03-06T17:29:37.319Z,46.17
2018-03-06T17:32:05.867Z,42.10
2018-03-06T17:34:34.950Z,46.77
2018-03-06T17:37:03.382Z,45.37
2018-03-06T17:39:31.685Z,46.30
2018-03-06T17:42:00.063Z,49.63
2018-03-06T17:44:28.447Z,47.27
2018-03-06T17:46:58.486Z,47.93
2018-03-06T17:49:26.937Z,47.30
2018-03-06T17:51:55.312Z,46.90
2018-03-06T17:54:24.003Z,46.27
2018-03-06T17:56:53.302Z,46.37
2018-03-06T17:59:21.756Z,48.30
2018-03-06T18:01:50.328Z,48.73
2018-03-06T18:04:20.485Z,46.27
2018-03-06T18:06:48.919Z,49.57
2018-03-06T18:09:18.192Z,48.80
2018-03-06T18:11:46.604Z,49.57
2018-03-06T18:14:15.237Z,49.47
2018-03-06T18:16:43.597Z,50.40
2018-03-06T18:19:12.027Z,53.37
2018-03-06T18:21:40.513Z,54.27
2018-03-06T18:24:08.957Z,51.07
2018-03-06T18:26:38.189Z,53.07
2018-03-06T18:29:07.596Z,55.43
2018-03-06T18:31:35.962Z,54.60
2018-03-06T18:34:05.478Z,52.40
2018-03-06T18:36:36.436Z,51.50
2018-03-06T18:39:05.908Z,52.27
2018-03-06T18:41:34.337Z,52.40
2018-03-06T18:44:02.875Z,57.90
2018-03-06T18:46:32.079Z,64.50
2018-03-06T18:49:02.237Z,62.47
2018-03-06T18:51:31.249Z,54.77
2018-03-06T18:53:59.733Z,51.83
2018-03-06T18:56:28.146Z,52.37
2018-03-06T18:58:56.580Z,49.07
2018-03-06T19:05:00.399Z,49.57
2018-03-06T19:07:28.855Z,48.60
2018-03-06T19:09:58.034Z,49.37
2018-03-06T19:12:26.421Z,49.63
2018-03-06T19:14:56.352Z,55.70
2018-03-06T19:17:27.139Z,52.00
2018-03-06T19:19:56.679Z,53.00
2018-03-06T19:22:25.117Z,52.60
2018-03-06T19:24:55.333Z,54.93
2018-03-06T19:27:23.676Z,52.63
2018-03-06T19:29:53.114Z,51.30
2018-03-06T19:32:21.458Z,51.57
2018-03-06T19:34:51.541Z,51.80
2018-03-06T19:37:19.987Z,50.60
2018-03-06T19:39:50.093Z,53.40
2018-03-06T19:42:18.489Z,53.27
2018-03-06T19:44:46.922Z,50.97
2018-03-06T19:47:15.261Z,52.57
2018-03-06T19:49:43.710Z,52.17
2018-03-06T19:52:12.300Z,53.40
2018-03-06T19:54:40.640Z,54.30
2018-03-06T19:57:10.661Z,53.30
2018-03-06T19:59:41.504Z,51.90
2018-03-06T20:02:10.126Z,53.63
2018-03-06T20:04:42.206Z,53.50
2018-03-06T20:07:10.860Z,53.20
2018-03-06T20:09:42.870Z,56.47
2018-03-06T20:12:12.991Z,53.80
2018-03-06T20:14:47.056Z,52.57
2018-03-06T20:17:18.186Z,54.30
2018-03-06T20:19:46.606Z,52.20
2018-03-06T20:22:15.221Z,52.67
2018-03-06T20:24:49.111Z,51.67
2018-03-06T20:27:17.766Z,51.80
2018-03-06T20:29:46.169Z,55.57
2018-03-06T20:32:20.188Z,53.30
2018-03-06T20:34:48.650Z,52.87
2018-03-06T20:37:17.014Z,56.27
2018-03-06T20:39:51.078Z,54.03
2018-03-06T20:42:21.374Z,52.83
2018-03-06T20:44:54.010Z,53.70
2018-03-06T20:47:22.535Z,54.40
2018-03-06T20:49:51.209Z,53.80
2018-03-06T20:52:19.676Z,55.50
2018-03-06T20:54:53.700Z,53.30
2018-03-06T20:57:23.811Z,53.20
2018-03-06T20:59:54.046Z,54.30
2018-03-06T21:02:22.441Z,55.17
2018-03-06T21:04:50.925Z,55.70
2018-03-06T21:07:19.280Z,55.27
2018-03-06T21:09:47.667Z,53.00
2018-03-06T21:12:15.996Z,52.87
2018-03-06T21:14:44.585Z,54.07
2018-03-06T21:17:15.256Z,56.47
2018-03-06T21:19:43.628Z,54.97
2018-03-06T21:22:13.780Z,54.20
2018-03-06T21:24:43.766Z,58.00
2018-03-06T21:27:12.170Z,55.70
2018-03-06T21:29:40.499Z,54.47
2018-03-06T21:32:10.582Z,55.60
2018-03-06T21:34:39.335Z,53.17
2018-03-06T21:37:07.672Z,54.07
2018-03-06T21:39:36.076Z,53.67
2018-03-06T21:42:04.454Z,55.97
2018-03-06T21:44:32.827Z,55.40
2018-03-06T21:47:01.239Z,54.47
2018-03-06T21:49:30.306Z,54.53
2018-03-06T21:54:33.482Z,55.17
2018-03-06T21:57:01.808Z,55.23
2018-03-06T21:59:30.202Z,55.90
2018-03-06T22:01:58.561Z,54.10
2018-03-06T22:04:26.963Z,55.50
2018-03-06T22:06:58.111Z,55.70
2018-03-06T22:09:26.490Z,54.33
2018-03-06T22:11:54.900Z,54.60
2018-03-06T22:14:25.458Z,55.87
2018-03-06T22:16:55.546Z,51.87
2018-03-06T22:19:25.787Z,54.10
2018-03-06T22:21:54.108Z,52.33
2018-03-06T22:24:23.199Z,53.30
2018-03-06T22:26:52.259Z,54.10
2018-03-06T22:29:20.707Z,51.50
2018-03-06T22:31:49.235Z,52.97
2018-03-06T22:34:17.621Z,52.97
2018-03-06T22:36:45.961Z,51.57
2018-03-06T22:39:14.363Z,53.80
2018-03-06T22:41:42.772Z,59.50
2018-03-06T22:44:11.210Z,54.10
2018-03-06T22:46:39.576Z,51.87
2018-03-06T22:49:08.671Z,56.50
2018-03-06T22:51:37.307Z,57.17
2018-03-06T22:54:05.670Z,58.90
2018-03-06T22:56:34.821Z,57.60
2018-03-06T22:59:03.216Z,53.97
2018-03-06T23:01:33.398Z,53.73
2018-03-06T23:04:03.640Z,55.47
2018-03-06T23:06:34.221Z,55.47
2018-03-06T23:09:02.556Z,51.17
2018-03-06T23:11:30.992Z,55.37
2018-03-06T23:14:01.705Z,51.20
2018-03-06T23:16:30.134Z,49.87
2018-03-06T23:18:58.651Z,51.03
2018-03-06T23:21:27.008Z,52.40
2018-03-06T23:23:55.354Z,49.90
2018-03-06T23:26:24.747Z,47.00
2018-03-06T23:28:53.217Z,45.60
2018-03-06T23:31:21.536Z,46.57
2018-03-06T23:33:51.913Z,44.97
2018-03-06T23:36:21.102Z,49.47
2018-03-06T23:38:51.284Z,46.47
2018-03-06T23:41:19.660Z,44.63
2018-03-06T23:43:48.014Z,48.10
2018-03-06T23:46:17.127Z,49.00
2018-03-06T23:48:45.486Z,45.43
2018-03-06T23:51:13.853Z,46.90
2018-03-06T23:53:42.355Z,45.43
2018-03-06T23:56:10.817Z,46.50
2018-03-06T23:58:39.206Z,44.90
